Time;durP1;ratioP1;P1;durP2;ratioP2;P2;SDS_P1;SDS_P2;PMS_P1;PMS_P2;Temp;Humidity;BMP_temperature;BMP_pressure;BME280_temperature;BME280_humidity;BME280_pressure;Samples;Min_cycle;Max_cycle;Signal;HPM_P1;HPM_P2
2021/04/09 00:01:12;;;;;;;4.27;3.90;;;;;;;;;;5052241;28;20180;-42
2021/04/09 00:03:37;;;;;;;4.00;3.50;;;;;;;;;;5049476;28;20180;-42
2021/04/09 00:06:02;;;;;;;5.43;3.55;;;;;;;;;;5051251;28;20168;-42
2021/04/09 00:08:27;;;;;;;4.00;3.67;;;;;;;;;;5040943;28;20533;-42
2021/04/09 00:10:53;;;;;;;3.87;3.50;;;;;;;;;;5052567;28;20195;-42
2021/04/09 00:13:18;;;;;;;5.93;3.90;;;;;;;;;;5053695;28;20233;-42
2021/04/09 00:15:43;;;;;;;4.03;3.67;;;;;;;;;;5049176;28;20635;-42
2021/04/09 00:18:08;;;;;;;3.47;3.07;;;;;;;;;;5051182;28;20277;-42
2021/04/09 00:20:33;;;;;;;3.10;2.88;;;;;;;;;;5049718;28;20235;-42
2021/04/09 00:22:59;;;;;;;3.47;3.27;;;;;;;;;;5043899;28;20169;-42
2021/04/09 00:25:24;;;;;;;3.40;3.10;;;;;;;;;;5040038;28;20169;-42
2021/04/09 00:27:49;;;;;;;3.70;3.40;;;;;;;;;;5044291;28;20176;-47
2021/04/09 00:30:17;;;;;;;3.83;3.07;;;;;;;;;;5040474;28;20289;-42
2021/04/09 00:32:43;;;;;;;3.37;3.07;;;;;;;;;;5043857;28;20195;-42
2021/04/09 00:35:08;;;;;;;3.80;3.60;;;;;;;;;;5043399;28;21145;-43
2021/04/09 00:37:34;;;;;;;4.07;3.77;;;;;;;;;;5044818;28;20176;-42
2021/04/09 00:39:59;;;;;;;5.18;3.60;;;;;;;;;;5041339;28;20259;-42
2021/04/09 00:42:24;;;;;;;3.42;3.13;;;;;;;;;;5046700;28;20582;-43
2021/04/09 00:44:49;;;;;;;3.37;3.00;;;;;;;;;;5032641;28;20176;-43
2021/04/09 00:47:14;;;;;;;3.57;3.37;;;;;;;;;;5048760;28;20206;-42
2021/04/09 00:49:40;;;;;;;3.80;3.50;;;;;;;;;;5033886;28;20545;-42
2021/04/09 00:52:06;;;;;;;3.93;3.63;;;;;;;;;;5037288;28;20235;-42
2021/04/09 00:54:31;;;;;;;3.63;3.30;;;;;;;;;;5048096;28;20205;-42
2021/04/09 00:56:57;;;;;;;4.23;3.80;;;;;;;;;;5037845;28;20254;-42
2021/04/09 00:59:22;;;;;;;4.27;3.97;;;;;;;;;;5036115;28;20179;-41
2021/04/09 01:01:47;;;;;;;3.97;3.63;;;;;;;;;;5048459;28;20187;-41
2021/04/09 01:04:13;;;;;;;3.10;3.00;;;;;;;;;;5050274;28;20199;-41
2021/04/09 01:06:38;;;;;;;3.73;3.40;;;;;;;;;;5050257;28;20265;-42
2021/04/09 01:09:04;;;;;;;4.40;3.90;;;;;;;;;;5045790;28;20251;-42
2021/04/09 01:14:32;;;;;;;5.10;4.00;;;;;;;;;;5028786;28;21295;-42
2021/04/09 01:17:05;;;;;;;4.30;3.90;;;;;;;;;;5043019;28;20713;-42
2021/04/09 01:19:33;;;;;;;4.13;3.80;;;;;;;;;;5040604;28;20219;-42
2021/04/09 01:22:01;;;;;;;3.83;3.53;;;;;;;;;;5044644;28;20676;-41
2021/04/09 01:24:45;;;;;;;3.63;3.33;;;;;;;;;;5050381;28;21377;-42
2021/04/09 01:27:28;;;;;;;4.70;4.30;;;;;;;;;;5043325;28;20616;-42
2021/04/09 01:29:53;;;;;;;5.10;3.70;;;;;;;;;;5048914;28;21056;-42
2021/04/09 01:32:18;;;;;;;4.67;3.77;;;;;;;;;;5049614;28;20728;-42
2021/04/09 01:34:46;;;;;;;4.43;3.43;;;;;;;;;;5040082;28;20183;-42
2021/04/09 01:37:14;;;;;;;5.40;3.80;;;;;;;;;;5050121;28;20176;-42
2021/04/09 01:39:46;;;;;;;4.90;4.50;;;;;;;;;;5045692;28;21140;-42
2021/04/09 01:42:12;;;;;;;4.17;3.87;;;;;;;;;;5044123;28;20637;-42
2021/04/09 01:44:40;;;;;;;4.13;3.73;;;;;;;;;;5037170;28;20856;-41
2021/04/09 01:47:05;;;;;;;4.37;3.97;;;;;;;;;;5047492;28;20735;-42
2021/04/09 01:49:32;;;;;;;4.83;4.43;;;;;;;;;;5038477;28;20632;-42
2021/04/09 01:51:57;;;;;;;6.83;5.17;;;;;;;;;;5046077;28;20208;-42
2021/04/09 01:54:23;;;;;;;5.07;4.20;;;;;;;;;;5048109;28;21162;-42
2021/04/09 01:56:50;;;;;;;5.00;4.57;;;;;;;;;;5030817;28;20772;-42
2021/04/09 01:59:16;;;;;;;4.83;4.30;;;;;;;;;;5045445;28;20259;-42
2021/04/09 02:01:44;;;;;;;5.17;4.67;;;;;;;;;;5046994;28;20672;-42
2021/04/09 02:04:09;;;;;;;5.13;4.67;;;;;;;;;;5038477;28;20958;-42
2021/04/09 02:06:35;;;;;;;6.87;5.10;;;;;;;;;;5042482;28;20617;-42
2021/04/09 02:09:01;;;;;;;5.60;5.03;;;;;;;;;;5045300;28;20206;-41
2021/04/09 02:11:27;;;;;;;5.40;4.90;;;;;;;;;;5043113;28;20202;-41
2021/04/09 02:13:52;;;;;;;5.87;5.07;;;;;;;;;;5044095;28;21207;-42
2021/04/09 02:16:18;;;;;;;5.40;5.00;;;;;;;;;;5033112;28;20193;-42
2021/04/09 02:18:43;;;;;;;4.80;4.30;;;;;;;;;;5036104;28;20196;-42
2021/04/09 02:21:09;;;;;;;6.27;5.67;;;;;;;;;;5039488;28;20613;-42
2021/04/09 02:23:34;;;;;;;6.17;5.57;;;;;;;;;;5036548;28;20208;-42
2021/04/09 02:26:00;;;;;;;7.73;5.47;;;;;;;;;;5049184;28;20569;-41
2021/04/09 02:28:25;;;;;;;5.13;4.60;;;;;;;;;;5043096;28;20208;-41
2021/04/09 02:31:03;;;;;;;7.50;4.80;;;;;;;;;;5044728;28;20210;-41
2021/04/09 02:33:29;;;;;;;7.23;5.57;;;;;;;;;;5036796;28;20265;-42
2021/04/09 02:35:55;;;;;;;6.17;5.67;;;;;;;;;;5045956;28;20958;-42
2021/04/09 02:38:20;;;;;;;6.63;5.70;;;;;;;;;;5040175;28;20621;-43
2021/04/09 02:40:46;;;;;;;6.57;5.30;;;;;;;;;;5033475;28;20204;-42
2021/04/09 02:43:11;;;;;;;6.13;5.63;;;;;;;;;;5046966;28;20187;-42
2021/04/09 02:45:36;;;;;;;5.57;5.00;;;;;;;;;;5037373;28;20194;-42
2021/04/09 02:48:02;;;;;;;5.30;4.90;;;;;;;;;;5047254;28;20182;-42
2021/04/09 02:50:38;;;;;;;7.00;6.47;;;;;;;;;;5043301;28;20203;-42
2021/04/09 02:53:06;;;;;;;6.40;5.67;;;;;;;;;;5042008;28;20595;-42
2021/04/09 02:55:37;;;;;;;6.90;6.40;;;;;;;;;;5031036;28;20654;-42
2021/04/09 02:58:05;;;;;;;5.97;5.20;;;;;;;;;;5044512;28;20586;-42
2021/04/09 03:00:30;;;;;;;8.33;6.17;;;;;;;;;;5043990;28;20808;-42
2021/04/09 03:02:56;;;;;;;7.03;5.80;;;;;;;;;;5048095;28;20722;-42
2021/04/09 03:05:22;;;;;;;7.37;6.67;;;;;;;;;;5030544;28;20287;-42
2021/04/09 03:07:47;;;;;;;6.57;6.07;;;;;;;;;;5036364;28;20196;-42
2021/04/09 03:10:14;;;;;;;6.90;6.30;;;;;;;;;;5043038;28;20610;-42
2021/04/09 03:12:40;;;;;;;7.93;7.13;;;;;;;;;;5042369;28;20232;-43
2021/04/09 03:15:05;;;;;;;7.70;6.80;;;;;;;;;;5046380;28;20600;-42
2021/04/09 03:17:34;;;;;;;6.80;6.10;;;;;;;;;;5048151;28;20232;-43
2021/04/09 03:19:59;;;;;;;8.20;5.43;;;;;;;;;;5046488;28;20172;-43
2021/04/09 03:22:24;;;;;;;7.03;6.30;;;;;;;;;;5048835;28;20655;-42
2021/04/09 03:24:49;;;;;;;6.07;5.47;;;;;;;;;;5042313;28;20263;-42
2021/04/09 03:27:15;;;;;;;6.33;5.70;;;;;;;;;;5048098;28;20174;-42
2021/04/09 03:29:41;;;;;;;6.60;6.00;;;;;;;;;;5048998;28;20267;-41
2021/04/09 03:32:06;;;;;;;8.40;6.43;;;;;;;;;;5047791;28;20214;-42
2021/04/09 03:34:31;;;;;;;8.10;5.70;;;;;;;;;;5046899;28;20962;-42
2021/04/09 03:36:57;;;;;;;7.50;6.70;;;;;;;;;;5048104;28;20206;-41
2021/04/09 03:39:22;;;;;;;7.60;6.93;;;;;;;;;;5041483;28;20198;-41
2021/04/09 03:41:47;;;;;;;9.60;6.23;;;;;;;;;;5039920;28;20230;-43
2021/04/09 03:44:12;;;;;;;6.93;6.33;;;;;;;;;;5037177;28;20187;-42
2021/04/09 03:46:37;;;;;;;8.25;6.85;;;;;;;;;;5046853;28;20540;-42
2021/04/09 03:49:02;;;;;;;7.63;6.97;;;;;;;;;;5036708;28;20191;-42
2021/04/09 03:51:30;;;;;;;6.70;6.10;;;;;;;;;;5038949;28;20223;-42
2021/04/09 03:53:55;;;;;;;7.50;6.80;;;;;;;;;;5033381;28;20180;-43
2021/04/09 03:56:20;;;;;;;7.60;6.83;;;;;;;;;;5041127;28;20697;-42
2021/04/09 03:58:45;;;;;;;6.93;6.10;;;;;;;;;;5033553;28;20179;-42
2021/04/09 04:01:12;;;;;;;8.27;7.47;;;;;;;;;;5041940;28;20722;-42
2021/04/09 04:03:37;;;;;;;9.60;7.70;;;;;;;;;;5049199;28;20703;-43
2021/04/09 04:06:02;;;;;;;7.63;6.90;;;;;;;;;;5043874;28;20596;-48
2021/04/09 04:08:27;;;;;;;7.43;6.73;;;;;;;;;;5049802;28;20192;-43
2021/04/09 04:10:52;;;;;;;9.17;6.97;;;;;;;;;;5036520;28;20521;-43
2021/04/09 04:13:18;;;;;;;8.33;6.97;;;;;;;;;;5035563;28;20194;-43
2021/04/09 04:15:43;;;;;;;7.93;6.83;;;;;;;;;;5033236;28;20248;-42
2021/04/09 04:18:08;;;;;;;10.43;7.60;;;;;;;;;;5058052;28;20182;-43
2021/04/09 04:20:33;;;;;;;9.17;6.40;;;;;;;;;;5050312;28;20170;-43
2021/04/09 04:22:58;;;;;;;7.87;7.17;;;;;;;;;;5041951;28;20707;-43
2021/04/09 04:25:24;;;;;;;10.57;9.50;;;;;;;;;;5045007;28;20176;-43
2021/04/09 04:27:49;;;;;;;11.47;10.47;;;;;;;;;;5048968;28;20603;-43
2021/04/09 04:30:14;;;;;;;9.60;8.73;;;;;;;;;;5046089;28;20350;-43
2021/04/09 04:32:39;;;;;;;9.90;8.40;;;;;;;;;;5047774;28;20649;-43
2021/04/09 04:35:05;;;;;;;8.90;8.00;;;;;;;;;;5050546;28;20176;-43
2021/04/09 04:37:30;;;;;;;8.00;7.20;;;;;;;;;;5049471;28;20622;-42
2021/04/09 04:39:55;;;;;;;8.52;7.72;;;;;;;;;;5041271;28;20188;-42
2021/04/09 04:42:20;;;;;;;8.98;6.93;;;;;;;;;;5036194;28;20758;-42
2021/04/09 04:44:46;;;;;;;10.07;7.70;;;;;;;;;;5038091;28;20208;-42
2021/04/09 04:47:11;;;;;;;7.70;7.00;;;;;;;;;;5045529;28;20188;-42
2021/04/09 04:49:36;;;;;;;10.40;7.27;;;;;;;;;;5045076;28;20175;-42
2021/04/09 04:52:01;;;;;;;8.07;7.27;;;;;;;;;;5043027;28;20338;-42
2021/04/09 04:54:27;;;;;;;9.23;8.00;;;;;;;;;;5046295;28;20176;-42
2021/04/09 04:56:52;;;;;;;7.90;7.20;;;;;;;;;;5041616;28;20220;-41
2021/04/09 04:59:17;;;;;;;8.90;7.17;;;;;;;;;;5042058;28;20176;-42
2021/04/09 05:01:42;;;;;;;8.23;7.43;;;;;;;;;;5047027;28;20171;-42
2021/04/09 05:04:07;;;;;;;8.80;8.00;;;;;;;;;;5047489;28;20665;-42
2021/04/09 05:06:33;;;;;;;8.33;7.20;;;;;;;;;;5042463;28;20194;-42
2021/04/09 05:08:58;;;;;;;10.50;8.13;;;;;;;;;;5047565;28;20179;-42
2021/04/09 05:11:23;;;;;;;8.03;6.93;;;;;;;;;;5046283;28;20213;-42
2021/04/09 05:13:48;;;;;;;9.55;7.28;;;;;;;;;;5047772;28;20196;-42
2021/04/09 05:16:13;;;;;;;7.70;6.90;;;;;;;;;;5045499;28;20172;-42
2021/04/09 05:18:39;;;;;;;11.40;8.80;;;;;;;;;;5032781;28;20169;-42
2021/04/09 05:21:05;;;;;;;8.83;7.93;;;;;;;;;;5055472;28;20186;-42
2021/04/09 05:23:30;;;;;;;11.03;7.60;;;;;;;;;;5041276;28;20177;-42
2021/04/09 05:25:55;;;;;;;9.73;7.57;;;;;;;;;;5042031;28;20604;-43
2021/04/09 05:28:20;;;;;;;10.77;8.77;;;;;;;;;;5040850;28;20812;-43
2021/04/09 05:30:46;;;;;;;8.50;7.70;;;;;;;;;;5057656;28;20659;-43
2021/04/09 05:33:11;;;;;;;8.67;7.90;;;;;;;;;;5046870;28;20282;-43
2021/04/09 05:35:36;;;;;;;10.97;8.67;;;;;;;;;;5039622;28;20262;-43
2021/04/09 05:38:01;;;;;;;9.40;8.50;;;;;;;;;;5038429;28;20218;-43
2021/04/09 05:40:26;;;;;;;10.90;8.87;;;;;;;;;;5034635;28;20207;-42
2021/04/09 05:42:56;;;;;;;10.53;9.43;;;;;;;;;;5045776;28;20642;-43
2021/04/09 05:45:21;;;;;;;10.13;9.10;;;;;;;;;;5045771;28;20212;-42
2021/04/09 05:47:47;;;;;;;9.60;8.43;;;;;;;;;;5044919;28;21029;-42
2021/04/09 05:50:22;;;;;;;10.23;9.10;;;;;;;;;;5036868;28;20183;-42
2021/04/09 05:52:48;;;;;;;10.23;9.17;;;;;;;;;;5034514;28;20614;-41
2021/04/09 05:55:14;;;;;;;11.30;9.43;;;;;;;;;;5029083;28;20643;-41
2021/04/09 05:57:39;;;;;;;10.27;8.90;;;;;;;;;;5038305;28;20179;-42
2021/04/09 06:00:05;;;;;;;11.53;9.43;;;;;;;;;;5045490;28;20594;-42
2021/04/09 06:02:30;;;;;;;9.10;8.20;;;;;;;;;;5046176;28;20266;-41
2021/04/09 06:04:55;;;;;;;9.85;8.65;;;;;;;;;;5046187;28;20180;-43
2021/04/09 06:07:20;;;;;;;11.53;8.70;;;;;;;;;;5041143;28;20195;-42
2021/04/09 06:09:46;;;;;;;10.57;9.57;;;;;;;;;;5045186;28;20202;-43
2021/04/09 06:12:12;;;;;;;10.50;8.90;;;;;;;;;;5043229;28;20209;-42
2021/04/09 06:14:37;;;;;;;10.43;9.03;;;;;;;;;;5033278;28;20602;-43
2021/04/09 06:17:02;;;;;;;10.73;8.88;;;;;;;;;;5031802;28;20177;-43
2021/04/09 06:19:28;;;;;;;10.53;9.47;;;;;;;;;;5043880;28;20190;-43
2021/04/09 06:21:53;;;;;;;10.30;9.17;;;;;;;;;;5032302;28;20184;-43
2021/04/09 06:24:19;;;;;;;9.45;8.55;;;;;;;;;;5039686;28;20623;-44
2021/04/09 06:26:44;;;;;;;10.10;9.13;;;;;;;;;;5043510;28;20201;-42
2021/04/09 06:29:09;;;;;;;11.07;9.60;;;;;;;;;;5046069;28;20179;-43
2021/04/09 06:31:34;;;;;;;10.23;9.20;;;;;;;;;;5044304;28;20677;-43
2021/04/09 06:33:59;;;;;;;9.83;8.13;;;;;;;;;;5044143;28;20177;-42
2021/04/09 06:36:24;;;;;;;14.13;9.30;;;;;;;;;;5046070;28;20327;-42
2021/04/09 06:38:50;;;;;;;9.97;8.90;;;;;;;;;;5041709;28;20228;-43
2021/04/09 06:41:17;;;;;;;11.23;9.63;;;;;;;;;;5039721;28;20254;-43
2021/04/09 06:43:42;;;;;;;10.37;9.00;;;;;;;;;;5044081;28;20296;-43
2021/04/09 06:46:08;;;;;;;9.88;8.93;;;;;;;;;;5043849;28;21222;-42
2021/04/09 06:48:33;;;;;;;9.10;8.20;;;;;;;;;;5026964;28;20653;-42
2021/04/09 06:50:59;;;;;;;11.13;9.50;;;;;;;;;;5026132;28;20202;-43
2021/04/09 06:53:24;;;;;;;10.70;9.67;;;;;;;;;;5041564;28;20634;-42
2021/04/09 06:55:50;;;;;;;9.57;8.67;;;;;;;;;;5040239;28;20711;-43
2021/04/09 06:58:18;;;;;;;10.70;9.40;;;;;;;;;;5035344;28;20190;-43
2021/04/09 07:00:47;;;;;;;9.43;8.53;;;;;;;;;;5042539;28;20694;-43
2021/04/09 07:03:12;;;;;;;9.73;8.80;;;;;;;;;;5047955;28;20944;-42
2021/04/09 07:05:37;;;;;;;9.23;8.30;;;;;;;;;;5047758;28;20704;-41
2021/04/09 07:08:03;;;;;;;9.57;8.67;;;;;;;;;;5048016;28;20688;-42
2021/04/09 07:10:28;;;;;;;10.77;9.60;;;;;;;;;;5047478;28;20224;-41
2021/04/09 07:13:02;;;;;;;9.57;8.67;;;;;;;;;;5047855;28;20214;-42
2021/04/09 07:15:35;;;;;;;10.37;9.37;;;;;;;;;;5048002;28;20193;-41
2021/04/09 07:18:00;;;;;;;12.10;9.90;;;;;;;;;;5047896;28;21078;-42
2021/04/09 07:20:29;;;;;;;9.13;8.23;;;;;;;;;;5048020;28;20701;-42
2021/04/09 07:22:55;;;;;;;9.93;9.00;;;;;;;;;;5047363;28;20221;-42
2021/04/09 07:25:23;;;;;;;9.70;8.70;;;;;;;;;;5052471;28;20658;-42
2021/04/09 07:27:49;;;;;;;9.27;8.37;;;;;;;;;;5052140;28;20606;-42
2021/04/09 07:30:16;;;;;;;8.60;7.80;;;;;;;;;;5051336;28;20605;-42
2021/04/09 07:32:41;;;;;;;9.90;8.90;;;;;;;;;;5051360;28;20633;-42
2021/04/09 07:35:11;;;;;;;9.00;8.17;;;;;;;;;;5052178;28;20648;-42
2021/04/09 07:37:52;;;;;;;9.67;8.77;;;;;;;;;;5051737;28;20175;-42
2021/04/09 07:40:25;;;;;;;9.20;8.40;;;;;;;;;;5051587;28;20650;-43
2021/04/09 07:42:50;;;;;;;10.17;9.13;;;;;;;;;;5050297;28;20616;-43
2021/04/09 07:45:17;;;;;;;8.60;7.80;;;;;;;;;;5051620;28;20689;-43
2021/04/09 07:47:52;;;;;;;8.77;8.00;;;;;;;;;;5051437;28;20589;-43
2021/04/09 07:50:18;;;;;;;8.10;7.40;;;;;;;;;;5051733;28;20580;-43
2021/04/09 07:52:44;;;;;;;7.80;7.20;;;;;;;;;;5050722;28;20605;-43
2021/04/09 07:55:22;;;;;;;10.90;9.00;;;;;;;;;;5051673;28;20280;-42
2021/04/09 07:57:48;;;;;;;8.60;7.77;;;;;;;;;;5051144;28;20654;-43
2021/04/09 08:00:21;;;;;;;8.30;7.33;;;;;;;;;;5050988;28;21533;-42
2021/04/09 08:02:47;;;;;;;9.90;8.90;;;;;;;;;;5051440;28;20222;-42
2021/04/09 08:05:13;;;;;;;9.83;8.83;;;;;;;;;;5051809;28;20655;-44
2021/04/09 08:07:39;;;;;;;9.37;8.40;;;;;;;;;;5051157;28;20178;-42
2021/04/09 08:10:04;;;;;;;10.10;7.27;;;;;;;;;;5051650;28;20597;-43
2021/04/09 08:12:31;;;;;;;7.77;7.07;;;;;;;;;;5050468;28;20641;-43
2021/04/09 08:14:56;;;;;;;7.80;7.07;;;;;;;;;;5050723;28;20186;-43
2021/04/09 08:17:23;;;;;;;8.03;7.23;;;;;;;;;;5050986;28;20586;-43
2021/04/09 08:19:55;;;;;;;9.33;8.43;;;;;;;;;;5050762;28;20221;-42
2021/04/09 08:22:21;;;;;;;8.00;7.20;;;;;;;;;;5050762;28;20604;-42
2021/04/09 08:24:46;;;;;;;7.70;6.90;;;;;;;;;;5050947;28;20707;-42
2021/04/09 08:27:12;;;;;;;7.90;6.43;;;;;;;;;;5051306;28;20640;-42
2021/04/09 08:29:38;;;;;;;8.27;7.47;;;;;;;;;;5050663;28;20171;-42
2021/04/09 08:32:03;;;;;;;9.07;6.93;;;;;;;;;;5050332;28;20206;-42
2021/04/09 08:34:29;;;;;;;6.90;6.30;;;;;;;;;;5051161;28;20164;-43
2021/04/09 08:36:54;;;;;;;9.63;8.73;;;;;;;;;;5049857;28;20509;-43
2021/04/09 08:39:19;;;;;;;9.93;7.20;;;;;;;;;;5051193;28;20171;-43
2021/04/09 08:41:45;;;;;;;7.23;6.63;;;;;;;;;;5049499;28;20282;-42
2021/04/09 08:44:11;;;;;;;6.30;5.80;;;;;;;;;;5050902;28;20179;-42
2021/04/09 08:46:37;;;;;;;6.40;5.80;;;;;;;;;;5050228;28;20653;-42
2021/04/09 08:49:02;;;;;;;6.97;6.23;;;;;;;;;;5050279;28;20594;-42
2021/04/09 08:51:28;;;;;;;7.43;6.73;;;;;;;;;;5050848;28;20221;-42
2021/04/09 08:53:53;;;;;;;6.83;6.23;;;;;;;;;;5050060;28;20176;-42
2021/04/09 08:56:34;;;;;;;6.53;5.93;;;;;;;;;;5050824;28;20270;-42
2021/04/09 08:59:00;;;;;;;6.93;6.23;;;;;;;;;;5050681;28;20163;-42
2021/04/09 09:01:25;;;;;;;7.97;6.57;;;;;;;;;;5050472;28;20645;-43
2021/04/09 09:03:54;;;;;;;6.75;5.93;;;;;;;;;;5050514;28;20175;-43
2021/04/09 09:06:39;;;;;;;5.63;5.23;;;;;;;;;;5049852;28;20183;-43
2021/04/09 09:09:04;;;;;;;5.50;5.00;;;;;;;;;;5050216;28;20922;-43
2021/04/09 09:11:47;;;;;;;6.70;6.20;;;;;;;;;;5049327;28;20641;-47
2021/04/09 09:14:31;;;;;;;9.00;6.20;;;;;;;;;;5050375;28;20178;-42
2021/04/09 09:16:56;;;;;;;6.60;5.87;;;;;;;;;;5049368;28;21163;-42
2021/04/09 09:19:37;;;;;;;6.23;5.73;;;;;;;;;;5049924;28;20640;-42
2021/04/09 09:22:14;;;;;;;6.30;5.70;;;;;;;;;;5049381;28;20656;-42
2021/04/09 09:24:58;;;;;;;6.90;6.30;;;;;;;;;;5050166;28;20578;-43
2021/04/09 09:27:43;;;;;;;6.80;6.10;;;;;;;;;;5049797;28;20684;-43
2021/04/09 09:30:31;;;;;;;7.07;6.37;;;;;;;;;;5049152;28;20898;-43
2021/04/09 09:33:15;;;;;;;6.47;5.87;;;;;;;;;;5045746;28;21188;-42
2021/04/09 09:35:53;;;;;;;7.07;5.43;;;;;;;;;;5049406;28;21159;-42
2021/04/09 09:38:36;;;;;;;7.20;6.50;;;;;;;;;;5049391;28;21212;-42
2021/04/09 09:41:02;;;;;;;6.80;6.20;;;;;;;;;;5048456;28;20636;-42
2021/04/09 09:43:31;;;;;;;6.43;5.83;;;;;;;;;;5049720;28;20571;-42
2021/04/09 09:45:56;;;;;;;7.30;6.70;;;;;;;;;;5049479;28;20273;-43
2021/04/09 09:48:21;;;;;;;7.35;6.65;;;;;;;;;;5048372;28;20681;-42
2021/04/09 09:50:46;;;;;;;7.67;5.97;;;;;;;;;;5049145;28;20201;-43
2021/04/09 09:53:12;;;;;;;5.90;5.40;;;;;;;;;;5049131;28;20176;-42
2021/04/09 09:55:38;;;;;;;5.90;5.37;;;;;;;;;;5048728;28;20222;-43
2021/04/09 09:58:08;;;;;;;5.80;5.20;;;;;;;;;;5049000;28;20173;-43
2021/04/09 10:00:35;;;;;;;5.83;5.03;;;;;;;;;;5047354;28;21140;-43
2021/04/09 10:03:17;;;;;;;6.77;5.80;;;;;;;;;;5049032;28;20596;-43
2021/04/09 10:05:47;;;;;;;6.67;5.23;;;;;;;;;;5029044;28;20577;-42
2021/04/09 10:08:13;;;;;;;5.53;5.00;;;;;;;;;;5029290;28;20989;-42
2021/04/09 10:10:41;;;;;;;5.67;5.17;;;;;;;;;;5030875;28;20627;-42
2021/04/09 10:13:18;;;;;;;6.37;4.90;;;;;;;;;;5049060;28;20698;-42
2021/04/09 10:15:44;;;;;;;6.50;5.90;;;;;;;;;;5048300;28;21042;-44
2021/04/09 10:18:09;;;;;;;7.07;5.97;;;;;;;;;;5047958;28;21160;-42
2021/04/09 10:20:35;;;;;;;7.57;5.70;;;;;;;;;;5048254;28;20178;-42
2021/04/09 10:23:00;;;;;;;6.83;6.20;;;;;;;;;;5047618;28;20765;-50
2021/04/09 10:25:29;;;;;;;7.90;6.03;;;;;;;;;;5048624;28;20172;-43
2021/04/09 10:27:54;;;;;;;8.10;6.00;;;;;;;;;;5048088;28;20182;-43
2021/04/09 10:30:32;;;;;;;6.10;5.50;;;;;;;;;;5048190;28;20588;-43
2021/04/09 10:32:57;;;;;;;6.00;5.50;;;;;;;;;;5048340;28;20204;-43
2021/04/09 10:35:24;;;;;;;6.10;5.50;;;;;;;;;;5048609;28;20996;-43
2021/04/09 10:37:49;;;;;;;7.13;6.40;;;;;;;;;;5048886;28;20183;-43
2021/04/09 10:40:14;;;;;;;6.20;5.60;;;;;;;;;;5048502;28;20718;-43
2021/04/09 10:42:39;;;;;;;6.40;5.80;;;;;;;;;;5047836;28;20683;-44
2021/04/09 10:45:16;;;;;;;7.57;5.50;;;;;;;;;;5048422;28;20168;-44
2021/04/09 10:47:41;;;;;;;5.10;4.70;;;;;;;;;;5043048;28;20240;-45
2021/04/09 10:50:06;;;;;;;6.47;5.77;;;;;;;;;;5048749;28;20670;-43
2021/04/09 10:52:32;;;;;;;5.87;5.33;;;;;;;;;;5048486;28;20690;-43
2021/04/09 10:55:01;;;;;;;6.93;5.93;;;;;;;;;;5048409;28;20574;-44
2021/04/09 10:57:26;;;;;;;7.90;6.30;;;;;;;;;;5047940;28;20603;-42
2021/04/09 10:59:52;;;;;;;7.55;5.72;;;;;;;;;;5048145;28;20574;-42
2021/04/09 11:02:19;;;;;;;6.53;5.70;;;;;;;;;;5047866;28;20184;-42
2021/04/09 11:04:48;;;;;;;6.20;5.60;;;;;;;;;;5048521;28;20176;-42
2021/04/09 11:07:14;;;;;;;6.17;5.63;;;;;;;;;;5047518;28;21176;-41
2021/04/09 11:09:44;;;;;;;5.77;5.20;;;;;;;;;;5047618;28;20610;-43
2021/04/09 11:12:18;;;;;;;5.17;4.73;;;;;;;;;;5028165;28;20212;-43
2021/04/09 11:14:43;;;;;;;4.90;4.50;;;;;;;;;;5047881;28;20611;-43
2021/04/09 11:17:09;;;;;;;5.57;4.87;;;;;;;;;;5048203;28;21170;-43
2021/04/09 11:19:35;;;;;;;6.17;5.50;;;;;;;;;;5048264;28;20181;-43
2021/04/09 11:22:02;;;;;;;5.80;5.30;;;;;;;;;;5047470;28;20177;-43
2021/04/09 11:24:35;;;;;;;4.97;4.57;;;;;;;;;;5047781;28;20598;-43
2021/04/09 11:27:01;;;;;;;5.23;4.73;;;;;;;;;;5048331;28;20723;-43
2021/04/09 11:29:31;;;;;;;5.67;4.93;;;;;;;;;;5048102;28;20595;-43
2021/04/09 11:32:18;;;;;;;8.00;5.27;;;;;;;;;;5047161;28;20714;-43
2021/04/09 11:34:44;;;;;;;4.80;4.40;;;;;;;;;;5047459;28;20613;-43
2021/04/09 11:37:10;;;;;;;5.13;4.50;;;;;;;;;;5048218;28;20594;-43
2021/04/09 11:39:46;;;;;;;5.50;5.00;;;;;;;;;;5048168;28;20586;-44
2021/04/09 11:42:12;;;;;;;5.57;4.80;;;;;;;;;;5049742;28;20218;-43
2021/04/09 11:44:38;;;;;;;4.83;4.43;;;;;;;;;;5067896;28;20588;-43
2021/04/09 11:47:11;;;;;;;4.90;4.40;;;;;;;;;;5050919;28;20203;-43
2021/04/09 11:49:36;;;;;;;4.87;4.40;;;;;;;;;;5047991;28;20600;-44
2021/04/09 11:52:02;;;;;;;6.50;5.20;;;;;;;;;;5047200;28;21211;-42
2021/04/09 11:54:34;;;;;;;5.67;5.17;;;;;;;;;;5048139;28;20230;-43
2021/04/09 11:56:59;;;;;;;4.90;4.50;;;;;;;;;;5047795;28;20191;-43
2021/04/09 11:59:25;;;;;;;5.90;5.30;;;;;;;;;;5047914;28;20689;-43
2021/04/09 12:01:51;;;;;;;6.07;5.20;;;;;;;;;;5046948;28;20542;-43
2021/04/09 12:04:32;;;;;;;5.57;5.13;;;;;;;;;;5047439;28;20622;-42
2021/04/09 12:06:57;;;;;;;6.90;6.30;;;;;;;;;;5027939;28;20218;-42
2021/04/09 12:09:23;;;;;;;6.37;5.87;;;;;;;;;;5035033;28;20606;-43
2021/04/09 12:11:48;;;;;;;7.20;6.50;;;;;;;;;;5050263;28;20219;-42
2021/04/09 12:14:13;;;;;;;7.43;6.73;;;;;;;;;;5051371;28;20181;-43
2021/04/09 12:16:38;;;;;;;8.40;7.63;;;;;;;;;;5050497;28;20186;-42
2021/04/09 12:19:03;;;;;;;7.70;6.97;;;;;;;;;;5050843;28;20200;-42
2021/04/09 12:21:28;;;;;;;8.27;7.60;;;;;;;;;;5051167;28;20171;-41
2021/04/09 12:23:54;;;;;;;8.57;7.87;;;;;;;;;;5050705;28;20700;-42
2021/04/09 12:26:21;;;;;;;8.57;7.87;;;;;;;;;;5051067;28;20226;-42
2021/04/09 12:28:46;;;;;;;7.87;7.27;;;;;;;;;;5050207;28;20174;-42
2021/04/09 12:31:12;;;;;;;8.45;7.60;;;;;;;;;;5050865;28;20652;-42
2021/04/09 12:33:37;;;;;;;9.33;8.37;;;;;;;;;;5050319;28;20168;-43
2021/04/09 12:36:02;;;;;;;8.40;7.60;;;;;;;;;;5050395;28;20233;-43
2021/04/09 12:38:27;;;;;;;8.20;7.50;;;;;;;;;;5050932;28;20171;-43
2021/04/09 12:40:52;;;;;;;9.03;8.17;;;;;;;;;;5050285;28;20664;-43
2021/04/09 12:43:18;;;;;;;8.47;7.70;;;;;;;;;;5050425;28;20232;-43
2021/04/09 12:45:43;;;;;;;9.50;7.67;;;;;;;;;;5050309;28;20171;-43
2021/04/09 12:48:08;;;;;;;8.57;7.70;;;;;;;;;;5050636;28;20636;-43
2021/04/09 12:50:33;;;;;;;9.67;8.73;;;;;;;;;;5050392;28;20184;-43
2021/04/09 12:52:59;;;;;;;8.67;7.77;;;;;;;;;;5050321;28;20193;-43
2021/04/09 12:55:24;;;;;;;8.17;7.37;;;;;;;;;;5050424;28;20261;-43
2021/04/09 12:57:49;;;;;;;8.97;8.17;;;;;;;;;;5050389;28;20186;-43
2021/04/09 13:00:14;;;;;;;9.20;8.30;;;;;;;;;;5050185;28;20176;-43
2021/04/09 13:02:40;;;;;;;8.70;7.80;;;;;;;;;;5049761;28;20681;-43
2021/04/09 13:05:06;;;;;;;9.27;8.37;;;;;;;;;;5050624;28;20257;-43
2021/04/09 13:07:31;;;;;;;8.40;7.70;;;;;;;;;;5050234;28;20177;-43
2021/04/09 13:09:57;;;;;;;7.77;7.07;;;;;;;;;;5050500;28;20174;-43
2021/04/09 13:12:22;;;;;;;8.85;7.97;;;;;;;;;;5049959;28;20658;-43
2021/04/09 13:14:47;;;;;;;9.30;8.40;;;;;;;;;;5049598;28;20249;-42
2021/04/09 13:17:13;;;;;;;8.45;7.75;;;;;;;;;;5049919;28;20173;-42
2021/04/09 13:19:38;;;;;;;9.70;8.70;;;;;;;;;;5049548;28;20191;-43
2021/04/09 13:22:03;;;;;;;8.13;7.43;;;;;;;;;;5049142;28;20786;-42
2021/04/09 13:24:31;;;;;;;7.77;7.07;;;;;;;;;;5049973;28;20508;-42
2021/04/09 13:26:59;;;;;;;8.10;7.30;;;;;;;;;;5049070;28;20181;-42
2021/04/09 13:29:25;;;;;;;8.37;7.60;;;;;;;;;;5049881;28;20573;-42
2021/04/09 13:31:50;;;;;;;8.07;7.00;;;;;;;;;;5049010;28;20666;-42
2021/04/09 13:34:15;;;;;;;8.37;7.53;;;;;;;;;;5049224;28;20212;-42
2021/04/09 13:36:40;;;;;;;9.47;8.57;;;;;;;;;;5049882;28;20182;-41
2021/04/09 13:39:05;;;;;;;8.93;8.23;;;;;;;;;;5048887;28;20188;-42
2021/04/09 13:41:30;;;;;;;7.80;7.10;;;;;;;;;;5048908;28;20201;-43
2021/04/09 13:43:56;;;;;;;8.50;7.57;;;;;;;;;;5048644;28;20678;-43
2021/04/09 13:46:22;;;;;;;7.70;6.90;;;;;;;;;;5049399;28;20275;-44
2021/04/09 13:48:47;;;;;;;8.47;7.77;;;;;;;;;;5048162;28;20661;-41
2021/04/09 13:51:12;;;;;;;9.83;8.13;;;;;;;;;;5048507;28;20686;-44
2021/04/09 13:53:38;;;;;;;7.70;7.00;;;;;;;;;;5029406;28;20178;-42
2021/04/09 13:56:06;;;;;;;8.60;7.80;;;;;;;;;;5029614;28;20227;-42
2021/04/09 13:58:32;;;;;;;8.00;7.30;;;;;;;;;;5029313;28;20258;-42
2021/04/09 14:00:57;;;;;;;7.63;6.97;;;;;;;;;;5036516;28;20744;-43
2021/04/09 14:03:22;;;;;;;9.20;8.30;;;;;;;;;;5047281;28;20175;-43
2021/04/09 14:05:47;;;;;;;7.90;7.20;;;;;;;;;;5049302;28;20254;-43
2021/04/09 14:08:13;;;;;;;7.80;7.10;;;;;;;;;;5049035;28;20193;-43
2021/04/09 14:10:38;;;;;;;8.77;7.97;;;;;;;;;;5047889;28;20183;-43
2021/04/09 14:13:03;;;;;;;7.30;6.63;;;;;;;;;;5048397;28;20169;-42
2021/04/09 14:15:28;;;;;;;8.77;7.17;;;;;;;;;;5048858;28;20171;-43
2021/04/09 14:17:53;;;;;;;7.70;7.00;;;;;;;;;;5048566;28;20256;-43
2021/04/09 14:20:20;;;;;;;7.70;5.93;;;;;;;;;;5048861;28;20705;-43
2021/04/09 14:22:45;;;;;;;7.40;6.80;;;;;;;;;;5048065;28;20226;-43
2021/04/09 14:25:12;;;;;;;7.40;6.17;;;;;;;;;;5048428;28;20606;-43
2021/04/09 14:27:38;;;;;;;6.57;5.97;;;;;;;;;;5048497;28;20198;-44
2021/04/09 14:30:07;;;;;;;9.03;8.13;;;;;;;;;;5048721;28;20593;-44
2021/04/09 14:32:32;;;;;;;7.87;7.17;;;;;;;;;;5047585;28;20792;-42
2021/04/09 14:34:57;;;;;;;6.95;6.45;;;;;;;;;;5048143;28;20947;-42
2021/04/09 14:37:22;;;;;;;7.03;6.43;;;;;;;;;;5048315;28;20257;-42
2021/04/09 14:39:47;;;;;;;6.70;6.18;;;;;;;;;;5047507;28;20529;-43
2021/04/09 14:42:13;;;;;;;7.28;6.68;;;;;;;;;;5048726;28;20703;-42